sensor_id;sensor_type;location;lat;lon;timestamp;P1;durP1;ratioP1;P2;durP2;ratioP2
38425;SDS011;24210;51.460;6.148;2023-02-11T00:00:20;31.90;;;18.00;;
38425;SDS011;24210;51.460;6.148;2023-02-11T00:02:45;32.63;;;18.43;;
38425;SDS011;24210;51.460;6.148;2023-02-11T00:05:10;33.50;;;17.83;;
38425;SDS011;24210;51.460;6.148;2023-02-11T00:07:36;30.80;;;17.33;;
38425;SDS011;24210;51.460;6.148;2023-02-11T00:10:02;36.43;;;19.47;;
38425;SDS011;24210;51.460;6.148;2023-02-11T00:12:27;32.55;;;19.48;;
38425;SDS011;24210;51.460;6.148;2023-02-11T00:14:53;33.23;;;21.20;;
38425;SDS011;24210;51.460;6.148;2023-02-11T00:17:18;32.67;;;20.60;;
38425;SDS011;24210;51.460;6.148;2023-02-11T00:19:43;36.70;;;19.47;;
38425;SDS011;24210;51.460;6.148;2023-02-11T00:22:08;31.93;;;20.10;;
38425;SDS011;24210;51.460;6.148;2023-02-11T00:24:34;31.83;;;18.20;;
38425;SDS011;24210;51.460;6.148;2023-02-11T00:27:00;31.40;;;17.95;;
38425;SDS011;24210;51.460;6.148;2023-02-11T00:29:25;28.30;;;17.37;;
38425;SDS011;24210;51.460;6.148;2023-02-11T00:31:50;25.73;;;15.37;;
38425;SDS011;24210;51.460;6.148;2023-02-11T00:34:15;26.03;;;16.97;;
38425;SDS011;24210;51.460;6.148;2023-02-11T00:36:41;34.20;;;17.20;;
38425;SDS011;24210;51.460;6.148;2023-02-11T00:39:06;30.83;;;19.93;;
38425;SDS011;24210;51.460;6.148;2023-02-11T00:41:31;31.43;;;18.70;;
38425;SDS011;24210;51.460;6.148;2023-02-11T00:43:57;39.37;;;19.43;;
38425;SDS011;24210;51.460;6.148;2023-02-11T00:46:22;28.73;;;18.00;;
38425;SDS011;24210;51.460;6.148;2023-02-11T00:48:48;27.07;;;17.47;;
38425;SDS011;24210;51.460;6.148;2023-02-11T00:51:15;25.05;;;15.88;;
38425;SDS011;24210;51.460;6.148;2023-02-11T00:53:41;28.40;;;16.80;;
38425;SDS011;24210;51.460;6.148;2023-02-11T00:56:06;30.10;;;17.03;;
38425;SDS011;24210;51.460;6.148;2023-02-11T00:58:31;29.17;;;16.40;;
38425;SDS011;24210;51.460;6.148;2023-02-11T01:00:57;28.53;;;14.73;;
38425;SDS011;24210;51.460;6.148;2023-02-11T01:03:22;21.40;;;13.40;;
38425;SDS011;24210;51.460;6.148;2023-02-11T01:05:47;22.40;;;11.37;;
38425;SDS011;24210;51.460;6.148;2023-02-11T01:08:13;25.53;;;14.90;;
38425;SDS011;24210;51.460;6.148;2023-02-11T01:10:38;22.00;;;13.20;;
38425;SDS011;24210;51.460;6.148;2023-02-11T01:13:03;18.13;;;11.30;;
38425;SDS011;24210;51.460;6.148;2023-02-11T01:15:30;20.75;;;12.95;;
38425;SDS011;24210;51.460;6.148;2023-02-11T01:17:56;23.13;;;13.77;;
38425;SDS011;24210;51.460;6.148;2023-02-11T01:20:22;20.77;;;11.80;;
38425;SDS011;24210;51.460;6.148;2023-02-11T01:22:47;27.08;;;13.75;;
38425;SDS011;24210;51.460;6.148;2023-02-11T01:25:12;18.33;;;10.70;;
38425;SDS011;24210;51.460;6.148;2023-02-11T01:27:37;18.50;;;11.07;;
38425;SDS011;24210;51.460;6.148;2023-02-11T01:30:03;15.53;;;9.50;;
38425;SDS011;24210;51.460;6.148;2023-02-11T01:32:29;19.92;;;9.57;;
38425;SDS011;24210;51.460;6.148;2023-02-11T01:34:54;17.67;;;11.43;;
38425;SDS011;24210;51.460;6.148;2023-02-11T01:37:19;17.33;;;8.40;;
38425;SDS011;24210;51.460;6.148;2023-02-11T01:39:44;17.47;;;12.43;;
38425;SDS011;24210;51.460;6.148;2023-02-11T01:42:11;23.80;;;12.83;;
38425;SDS011;24210;51.460;6.148;2023-02-11T01:44:39;16.10;;;10.30;;
38425;SDS011;24210;51.460;6.148;2023-02-11T01:47:05;14.80;;;9.07;;
38425;SDS011;24210;51.460;6.148;2023-02-11T01:49:31;16.77;;;9.40;;
38425;SDS011;24210;51.460;6.148;2023-02-11T01:54:23;22.97;;;10.70;;
38425;SDS011;24210;51.460;6.148;2023-02-11T01:57:07;20.13;;;11.17;;
38425;SDS011;24210;51.460;6.148;2023-02-11T01:59:58;15.27;;;7.35;;
38425;SDS011;24210;51.460;6.148;2023-02-11T02:02:26;16.35;;;10.18;;
38425;SDS011;24210;51.460;6.148;2023-02-11T02:04:56;16.60;;;11.20;;
38425;SDS011;24210;51.460;6.148;2023-02-11T02:07:26;14.75;;;9.98;;
38425;SDS011;24210;51.460;6.148;2023-02-11T02:09:56;19.20;;;11.43;;
38425;SDS011;24210;51.460;6.148;2023-02-11T02:12:22;21.20;;;11.82;;
38425;SDS011;24210;51.460;6.148;2023-02-11T02:14:47;21.17;;;10.97;;
38425;SDS011;24210;51.460;6.148;2023-02-11T02:17:17;24.83;;;10.43;;
38425;SDS011;24210;51.460;6.148;2023-02-11T02:20:33;20.17;;;9.80;;
38425;SDS011;24210;51.460;6.148;2023-02-11T02:38:20;12.63;;;7.43;;
38425;SDS011;24210;51.460;6.148;2023-02-11T02:43:18;19.17;;;8.50;;
38425;SDS011;24210;51.460;6.148;2023-02-11T02:45:44;15.90;;;8.43;;
38425;SDS011;24210;51.460;6.148;2023-02-11T02:48:29;11.33;;;7.50;;
38425;SDS011;24210;51.460;6.148;2023-02-11T02:50:58;10.43;;;5.05;;
38425;SDS011;24210;51.460;6.148;2023-02-11T02:56:43;14.80;;;7.63;;
38425;SDS011;24210;51.460;6.148;2023-02-11T02:59:12;14.13;;;6.63;;
38425;SDS011;24210;51.460;6.148;2023-02-11T03:04:42;14.57;;;9.27;;
38425;SDS011;24210;51.460;6.148;2023-02-11T03:09:36;17.80;;;8.13;;
38425;SDS011;24210;51.460;6.148;2023-02-11T03:12:02;16.75;;;7.63;;
38425;SDS011;24210;51.460;6.148;2023-02-11T03:14:28;12.43;;;6.63;;
38425;SDS011;24210;51.460;6.148;2023-02-11T03:16:54;12.88;;;8.65;;
38425;SDS011;24210;51.460;6.148;2023-02-11T03:19:21;11.35;;;6.13;;
38425;SDS011;24210;51.460;6.148;2023-02-11T03:21:48;11.82;;;6.45;;
38425;SDS011;24210;51.460;6.148;2023-02-11T03:24:16;10.57;;;6.70;;
38425;SDS011;24210;51.460;6.148;2023-02-11T03:26:48;16.65;;;8.38;;
38425;SDS011;24210;51.460;6.148;2023-02-11T03:29:16;15.82;;;7.47;;
38425;SDS011;24210;51.460;6.148;2023-02-11T03:34:16;13.65;;;5.68;;
38425;SDS011;24210;51.460;6.148;2023-02-11T03:39:24;10.50;;;5.05;;
38425;SDS011;24210;51.460;6.148;2023-02-11T03:41:51;12.50;;;6.10;;
38425;SDS011;24210;51.460;6.148;2023-02-11T03:44:18;13.30;;;7.43;;
38425;SDS011;24210;51.460;6.148;2023-02-11T03:46:47;10.25;;;5.28;;
38425;SDS011;24210;51.460;6.148;2023-02-11T03:49:13;13.82;;;6.38;;
38425;SDS011;24210;51.460;6.148;2023-02-11T03:51:40;12.52;;;6.85;;
38425;SDS011;24210;51.460;6.148;2023-02-11T03:54:07;15.63;;;6.27;;
38425;SDS011;24210;51.460;6.148;2023-02-11T03:56:35;13.85;;;6.65;;
38425;SDS011;24210;51.460;6.148;2023-02-11T03:59:02;19.98;;;8.38;;
38425;SDS011;24210;51.460;6.148;2023-02-11T04:01:27;10.03;;;5.53;;
38425;SDS011;24210;51.460;6.148;2023-02-11T04:03:52;11.57;;;5.63;;
38425;SDS011;24210;51.460;6.148;2023-02-11T04:06:18;19.67;;;7.57;;
38425;SDS011;24210;51.460;6.148;2023-02-11T04:08:43;17.17;;;9.07;;
38425;SDS011;24210;51.460;6.148;2023-02-11T04:11:08;12.03;;;7.73;;
38425;SDS011;24210;51.460;6.148;2023-02-11T04:13:35;14.73;;;6.97;;
38425;SDS011;24210;51.460;6.148;2023-02-11T04:16:00;16.20;;;7.87;;
38425;SDS011;24210;51.460;6.148;2023-02-11T04:18:25;15.10;;;6.57;;
38425;SDS011;24210;51.460;6.148;2023-02-11T04:20:50;17.17;;;7.20;;
38425;SDS011;24210;51.460;6.148;2023-02-11T04:23:15;14.17;;;7.30;;
38425;SDS011;24210;51.460;6.148;2023-02-11T04:25:41;17.40;;;7.00;;
38425;SDS011;24210;51.460;6.148;2023-02-11T04:28:06;10.70;;;6.43;;
38425;SDS011;24210;51.460;6.148;2023-02-11T04:30:31;11.43;;;7.07;;
38425;SDS011;24210;51.460;6.148;2023-02-11T04:32:57;12.50;;;7.03;;
38425;SDS011;24210;51.460;6.148;2023-02-11T04:35:22;22.07;;;8.13;;
38425;SDS011;24210;51.460;6.148;2023-02-11T04:37:47;16.43;;;6.10;;
38425;SDS011;24210;51.460;6.148;2023-02-11T04:40:12;20.30;;;9.20;;
38425;SDS011;24210;51.460;6.148;2023-02-11T04:42:38;9.67;;;7.07;;
38425;SDS011;24210;51.460;6.148;2023-02-11T04:45:03;18.17;;;7.87;;
38425;SDS011;24210;51.460;6.148;2023-02-11T04:47:28;16.80;;;7.93;;
38425;SDS011;24210;51.460;6.148;2023-02-11T04:49:53;16.10;;;8.63;;
38425;SDS011;24210;51.460;6.148;2023-02-11T04:52:19;16.33;;;7.47;;
38425;SDS011;24210;51.460;6.148;2023-02-11T04:54:44;16.73;;;8.20;;
38425;SDS011;24210;51.460;6.148;2023-02-11T04:57:09;13.23;;;6.40;;
38425;SDS011;24210;51.460;6.148;2023-02-11T04:59:34;13.03;;;7.40;;
38425;SDS011;24210;51.460;6.148;2023-02-11T05:01:59;11.17;;;6.27;;
38425;SDS011;24210;51.460;6.148;2023-02-11T05:04:25;15.23;;;9.50;;
38425;SDS011;24210;51.460;6.148;2023-02-11T05:06:50;14.80;;;6.67;;
38425;SDS011;24210;51.460;6.148;2023-02-11T05:09:15;13.80;;;7.63;;
38425;SDS011;24210;51.460;6.148;2023-02-11T05:11:41;13.93;;;8.50;;
38425;SDS011;24210;51.460;6.148;2023-02-11T05:14:06;18.80;;;8.10;;
38425;SDS011;24210;51.460;6.148;2023-02-11T05:16:32;22.10;;;7.83;;
38425;SDS011;24210;51.460;6.148;2023-02-11T05:18:57;17.33;;;7.77;;
38425;SDS011;24210;51.460;6.148;2023-02-11T05:21:22;17.70;;;7.43;;
38425;SDS011;24210;51.460;6.148;2023-02-11T05:23:48;12.27;;;7.67;;
38425;SDS011;24210;51.460;6.148;2023-02-11T05:26:13;16.53;;;7.23;;
38425;SDS011;24210;51.460;6.148;2023-02-11T05:28:38;13.43;;;9.57;;
38425;SDS011;24210;51.460;6.148;2023-02-11T05:31:04;22.77;;;8.83;;
38425;SDS011;24210;51.460;6.148;2023-02-11T05:33:29;18.73;;;9.33;;
38425;SDS011;24210;51.460;6.148;2023-02-11T05:36:12;21.70;;;9.80;;
38425;SDS011;24210;51.460;6.148;2023-02-11T05:38:38;20.85;;;9.32;;
38425;SDS011;24210;51.460;6.148;2023-02-11T05:41:03;18.87;;;9.97;;
38425;SDS011;24210;51.460;6.148;2023-02-11T05:43:29;20.33;;;9.87;;
38425;SDS011;24210;51.460;6.148;2023-02-11T05:45:54;25.77;;;10.10;;
38425;SDS011;24210;51.460;6.148;2023-02-11T05:48:19;15.47;;;9.13;;
38425;SDS011;24210;51.460;6.148;2023-02-11T05:50:45;20.10;;;10.77;;
38425;SDS011;24210;51.460;6.148;2023-02-11T05:53:10;22.43;;;11.23;;
38425;SDS011;24210;51.460;6.148;2023-02-11T05:55:35;21.70;;;12.13;;
38425;SDS011;24210;51.460;6.148;2023-02-11T05:58:01;19.33;;;9.13;;
38425;SDS011;24210;51.460;6.148;2023-02-11T06:00:26;18.73;;;10.97;;
38425;SDS011;24210;51.460;6.148;2023-02-11T06:02:51;22.50;;;12.10;;
38425;SDS011;24210;51.460;6.148;2023-02-11T06:05:16;29.77;;;14.47;;
38425;SDS011;24210;51.460;6.148;2023-02-11T06:07:42;23.87;;;12.30;;
38425;SDS011;24210;51.460;6.148;2023-02-11T06:10:07;22.53;;;12.20;;
38425;SDS011;24210;51.460;6.148;2023-02-11T06:12:32;28.93;;;14.33;;
38425;SDS011;24210;51.460;6.148;2023-02-11T06:14:57;21.50;;;12.30;;
38425;SDS011;24210;51.460;6.148;2023-02-11T06:17:23;20.07;;;9.10;;
38425;SDS011;24210;51.460;6.148;2023-02-11T06:19:49;19.10;;;10.40;;
38425;SDS011;24210;51.460;6.148;2023-02-11T06:22:14;20.70;;;10.30;;
38425;SDS011;24210;51.460;6.148;2023-02-11T06:24:39;20.07;;;10.57;;
38425;SDS011;24210;51.460;6.148;2023-02-11T06:27:05;19.73;;;10.23;;
38425;SDS011;24210;51.460;6.148;2023-02-11T06:29:30;20.90;;;10.77;;
38425;SDS011;24210;51.460;6.148;2023-02-11T06:31:55;17.03;;;8.30;;
38425;SDS011;24210;51.460;6.148;2023-02-11T06:34:20;20.57;;;9.13;;
38425;SDS011;24210;51.460;6.148;2023-02-11T06:36:46;19.00;;;10.87;;
38425;SDS011;24210;51.460;6.148;2023-02-11T06:39:11;19.90;;;9.93;;
38425;SDS011;24210;51.460;6.148;2023-02-11T06:41:37;26.27;;;11.53;;
38425;SDS011;24210;51.460;6.148;2023-02-11T06:44:02;26.27;;;12.03;;
38425;SDS011;24210;51.460;6.148;2023-02-11T06:46:27;17.87;;;10.00;;
38425;SDS011;24210;51.460;6.148;2023-02-11T06:48:53;18.00;;;9.83;;
38425;SDS011;24210;51.460;6.148;2023-02-11T06:51:18;19.77;;;9.77;;
38425;SDS011;24210;51.460;6.148;2023-02-11T06:53:44;23.50;;;10.00;;
38425;SDS011;24210;51.460;6.148;2023-02-11T06:56:11;16.45;;;8.43;;
38425;SDS011;24210;51.460;6.148;2023-02-11T06:58:37;17.77;;;9.90;;
38425;SDS011;24210;51.460;6.148;2023-02-11T07:01:06;18.83;;;10.00;;
38425;SDS011;24210;51.460;6.148;2023-02-11T07:03:32;18.63;;;9.95;;
38425;SDS011;24210;51.460;6.148;2023-02-11T07:05:58;24.40;;;12.52;;
38425;SDS011;24210;51.460;6.148;2023-02-11T07:08:24;14.83;;;9.00;;
38425;SDS011;24210;51.460;6.148;2023-02-11T07:10:49;29.67;;;12.00;;
38425;SDS011;24210;51.460;6.148;2023-02-11T07:13:14;18.50;;;9.43;;
38425;SDS011;24210;51.460;6.148;2023-02-11T07:15:39;21.30;;;11.03;;
38425;SDS011;24210;51.460;6.148;2023-02-11T07:18:05;19.77;;;11.73;;
38425;SDS011;24210;51.460;6.148;2023-02-11T07:20:30;25.90;;;11.10;;
38425;SDS011;24210;51.460;6.148;2023-02-11T07:22:55;27.30;;;12.20;;
38425;SDS011;24210;51.460;6.148;2023-02-11T07:25:20;20.67;;;11.10;;
38425;SDS011;24210;51.460;6.148;2023-02-11T07:27:46;24.37;;;11.53;;
38425;SDS011;24210;51.460;6.148;2023-02-11T07:30:11;24.67;;;13.20;;
38425;SDS011;24210;51.460;6.148;2023-02-11T07:32:36;20.07;;;11.77;;
38425;SDS011;24210;51.460;6.148;2023-02-11T07:35:02;21.30;;;11.83;;
38425;SDS011;24210;51.460;6.148;2023-02-11T07:37:27;16.73;;;10.33;;
38425;SDS011;24210;51.460;6.148;2023-02-11T07:39:53;21.50;;;13.03;;
38425;SDS011;24210;51.460;6.148;2023-02-11T07:42:18;23.73;;;12.20;;
38425;SDS011;24210;51.460;6.148;2023-02-11T07:44:44;22.97;;;11.77;;
38425;SDS011;24210;51.460;6.148;2023-02-11T07:47:10;24.67;;;10.15;;
38425;SDS011;24210;51.460;6.148;2023-02-11T07:49:35;22.30;;;10.40;;
38425;SDS011;24210;51.460;6.148;2023-02-11T07:52:00;18.13;;;11.00;;
38425;SDS011;24210;51.460;6.148;2023-02-11T07:54:25;21.50;;;10.00;;
38425;SDS011;24210;51.460;6.148;2023-02-11T07:56:51;22.23;;;10.93;;
38425;SDS011;24210;51.460;6.148;2023-02-11T07:59:16;21.80;;;10.90;;
38425;SDS011;24210;51.460;6.148;2023-02-11T08:01:41;24.10;;;12.13;;
38425;SDS011;24210;51.460;6.148;2023-02-11T08:04:06;20.27;;;11.23;;
38425;SDS011;24210;51.460;6.148;2023-02-11T08:06:32;25.73;;;11.13;;
38425;SDS011;24210;51.460;6.148;2023-02-11T08:09:02;18.63;;;11.52;;
38425;SDS011;24210;51.460;6.148;2023-02-11T08:11:27;21.75;;;13.57;;
38425;SDS011;24210;51.460;6.148;2023-02-11T08:13:53;23.90;;;14.13;;
38425;SDS011;24210;51.460;6.148;2023-02-11T08:16:20;31.48;;;14.13;;
38425;SDS011;24210;51.460;6.148;2023-02-11T08:18:46;19.50;;;11.27;;
38425;SDS011;24210;51.460;6.148;2023-02-11T08:21:11;22.37;;;10.60;;
38425;SDS011;24210;51.460;6.148;2023-02-11T08:23:37;15.90;;;5.63;;
38425;SDS011;24210;51.460;6.148;2023-02-11T08:26:07;32.53;;;15.88;;
38425;SDS011;24210;51.460;6.148;2023-02-11T08:28:39;18.48;;;8.60;;
38425;SDS011;24210;51.460;6.148;2023-02-11T08:31:14;26.90;;;13.80;;
38425;SDS011;24210;51.460;6.148;2023-02-11T08:33:39;28.02;;;13.25;;
38425;SDS011;24210;51.460;6.148;2023-02-11T08:36:09;34.13;;;15.67;;
38425;SDS011;24210;51.460;6.148;2023-02-11T08:38:34;28.58;;;12.05;;
38425;SDS011;24210;51.460;6.148;2023-02-11T08:41:00;42.53;;;20.07;;
38425;SDS011;24210;51.460;6.148;2023-02-11T08:43:25;36.90;;;18.50;;
38425;SDS011;24210;51.460;6.148;2023-02-11T08:45:50;29.37;;;14.37;;
38425;SDS011;24210;51.460;6.148;2023-02-11T08:48:16;34.37;;;14.30;;
38425;SDS011;24210;51.460;6.148;2023-02-11T08:50:41;31.87;;;17.37;;
38425;SDS011;24210;51.460;6.148;2023-02-11T08:53:06;5.50;;;3.73;;
38425;SDS011;24210;51.460;6.148;2023-02-11T08:55:31;34.10;;;15.90;;
38425;SDS011;24210;51.460;6.148;2023-02-11T08:57:57;18.67;;;8.30;;
38425;SDS011;24210;51.460;6.148;2023-02-11T09:00:22;29.93;;;13.20;;
38425;SDS011;24210;51.460;6.148;2023-02-11T09:02:47;20.97;;;10.63;;
38425;SDS011;24210;51.460;6.148;2023-02-11T09:05:12;43.60;;;10.57;;
38425;SDS011;24210;51.460;6.148;2023-02-11T09:07:38;7.13;;;3.77;;
38425;SDS011;24210;51.460;6.148;2023-02-11T09:10:03;25.20;;;10.77;;
38425;SDS011;24210;51.460;6.148;2023-02-11T09:12:30;22.42;;;9.90;;
38425;SDS011;24210;51.460;6.148;2023-02-11T09:14:55;10.60;;;7.63;;
38425;SDS011;24210;51.460;6.148;2023-02-11T09:17:20;16.97;;;9.00;;
38425;SDS011;24210;51.460;6.148;2023-02-11T09:19:46;30.23;;;9.50;;
38425;SDS011;24210;51.460;6.148;2023-02-11T09:22:11;38.57;;;15.73;;
38425;SDS011;24210;51.460;6.148;2023-02-11T09:24:36;43.50;;;20.70;;
38425;SDS011;24210;51.460;6.148;2023-02-11T09:27:01;37.10;;;15.60;;
38425;SDS011;24210;51.460;6.148;2023-02-11T09:29:26;26.67;;;12.37;;
38425;SDS011;24210;51.460;6.148;2023-02-11T09:31:52;43.00;;;19.63;;
38425;SDS011;24210;51.460;6.148;2023-02-11T09:34:17;36.50;;;14.83;;
38425;SDS011;24210;51.460;6.148;2023-02-11T09:36:42;40.73;;;19.63;;
38425;SDS011;24210;51.460;6.148;2023-02-11T09:39:17;20.83;;;6.57;;
38425;SDS011;24210;51.460;6.148;2023-02-11T09:44:22;19.00;;;9.25;;
38425;SDS011;24210;51.460;6.148;2023-02-11T09:46:52;34.55;;;12.38;;
38425;SDS011;24210;51.460;6.148;2023-02-11T09:49:20;54.35;;;23.77;;
38425;SDS011;24210;51.460;6.148;2023-02-11T09:51:50;27.73;;;9.00;;
38425;SDS011;24210;51.460;6.148;2023-02-11T09:54:28;45.08;;;17.33;;
38425;SDS011;24210;51.460;6.148;2023-02-11T09:56:55;16.27;;;7.28;;
38425;SDS011;24210;51.460;6.148;2023-02-11T09:59:20;40.73;;;19.13;;
38425;SDS011;24210;51.460;6.148;2023-02-11T10:06:48;44.67;;;18.33;;
38425;SDS011;24210;51.460;6.148;2023-02-11T10:14:48;20.58;;;11.02;;
38425;SDS011;24210;51.460;6.148;2023-02-11T10:20:16;24.13;;;11.75;;
38425;SDS011;24210;51.460;6.148;2023-02-11T10:22:49;26.30;;;12.80;;
38425;SDS011;24210;51.460;6.148;2023-02-11T10:25:23;37.50;;;17.13;;
38425;SDS011;24210;51.460;6.148;2023-02-11T10:27:49;41.58;;;16.83;;
38425;SDS011;24210;51.460;6.148;2023-02-11T10:30:19;40.75;;;17.60;;
38425;SDS011;24210;51.460;6.148;2023-02-11T10:32:47;49.75;;;22.40;;
38425;SDS011;24210;51.460;6.148;2023-02-11T10:35:14;30.75;;;15.70;;
38425;SDS011;24210;51.460;6.148;2023-02-11T10:40:06;47.67;;;24.00;;
38425;SDS011;24210;51.460;6.148;2023-02-11T10:42:36;25.25;;;10.48;;
38425;SDS011;24210;51.460;6.148;2023-02-11T10:45:02;50.57;;;22.23;;
38425;SDS011;24210;51.460;6.148;2023-02-11T10:49:54;27.97;;;15.53;;
38425;SDS011;24210;51.460;6.148;2023-02-11T10:57:49;17.88;;;8.57;;
38425;SDS011;24210;51.460;6.148;2023-02-11T11:02:41;31.53;;;17.17;;
38425;SDS011;24210;51.460;6.148;2023-02-11T11:05:18;28.58;;;10.55;;
38425;SDS011;24210;51.460;6.148;2023-02-11T11:07:55;39.72;;;16.30;;
38425;SDS011;24210;51.460;6.148;2023-02-11T11:12:57;15.88;;;10.60;;
38425;SDS011;24210;51.460;6.148;2023-02-11T11:15:24;46.60;;;18.83;;
38425;SDS011;24210;51.460;6.148;2023-02-11T11:17:50;27.50;;;10.80;;
38425;SDS011;24210;51.460;6.148;2023-02-11T11:20:32;21.67;;;12.05;;
38425;SDS011;24210;51.460;6.148;2023-02-11T11:23:08;28.20;;;13.63;;
38425;SDS011;24210;51.460;6.148;2023-02-11T11:25:34;46.63;;;23.33;;
38425;SDS011;24210;51.460;6.148;2023-02-11T11:28:01;50.53;;;21.73;;
38425;SDS011;24210;51.460;6.148;2023-02-11T11:30:31;39.07;;;17.57;;
38425;SDS011;24210;51.460;6.148;2023-02-11T11:32:57;46.20;;;19.27;;
38425;SDS011;24210;51.460;6.148;2023-02-11T11:35:24;21.37;;;12.00;;
38425;SDS011;24210;51.460;6.148;2023-02-11T11:37:51;30.52;;;13.82;;
38425;SDS011;24210;51.460;6.148;2023-02-11T11:42:46;48.00;;;20.20;;
38425;SDS011;24210;51.460;6.148;2023-02-11T11:45:25;42.38;;;20.52;;
38425;SDS011;24210;51.460;6.148;2023-02-11T11:50:33;32.17;;;14.90;;
38425;SDS011;24210;51.460;6.148;2023-02-11T11:53:03;42.47;;;18.88;;
38425;SDS011;24210;51.460;6.148;2023-02-11T11:57:54;26.40;;;11.70;;
38425;SDS011;24210;51.460;6.148;2023-02-11T12:00:20;56.43;;;25.10;;
38425;SDS011;24210;51.460;6.148;2023-02-11T12:05:35;50.47;;;21.52;;
38425;SDS011;24210;51.460;6.148;2023-02-11T12:31:32;45.80;;;21.52;;
38425;SDS011;24210;51.460;6.148;2023-02-11T12:39:55;45.60;;;19.90;;
38425;SDS011;24210;51.460;6.148;2023-02-11T12:47:39;22.20;;;12.97;;
38425;SDS011;24210;51.460;6.148;2023-02-11T12:51:09;42.08;;;18.50;;
38425;SDS011;24210;51.460;6.148;2023-02-11T12:55:44;18.85;;;13.00;;
38425;SDS011;24210;51.460;6.148;2023-02-11T12:58:15;26.67;;;15.57;;
38425;SDS011;24210;51.460;6.148;2023-02-11T13:00:45;31.15;;;13.75;;
38425;SDS011;24210;51.460;6.148;2023-02-11T13:03:18;47.72;;;23.42;;
38425;SDS011;24210;51.460;6.148;2023-02-11T13:10:55;24.02;;;11.90;;
38425;SDS011;24210;51.460;6.148;2023-02-11T13:13:29;41.03;;;21.45;;
38425;SDS011;24210;51.460;6.148;2023-02-11T13:16:00;42.70;;;18.40;;
38425;SDS011;24210;51.460;6.148;2023-02-11T13:28:41;22.75;;;11.13;;
38425;SDS011;24210;51.460;6.148;2023-02-11T13:31:08;23.45;;;11.50;;
38425;SDS011;24210;51.460;6.148;2023-02-11T13:33:37;35.03;;;16.00;;
38425;SDS011;24210;51.460;6.148;2023-02-11T13:38:28;34.80;;;17.43;;
38425;SDS011;24210;51.460;6.148;2023-02-11T13:43:38;51.78;;;26.25;;
38425;SDS011;24210;51.460;6.148;2023-02-11T13:46:04;46.97;;;24.63;;
38425;SDS011;24210;51.460;6.148;2023-02-11T13:48:31;25.98;;;14.27;;
38425;SDS011;24210;51.460;6.148;2023-02-11T13:51:07;45.30;;;22.20;;
38425;SDS011;24210;51.460;6.148;2023-02-11T13:56:07;39.25;;;14.77;;
38425;SDS011;24210;51.460;6.148;2023-02-11T13:58:34;45.30;;;19.13;;
38425;SDS011;24210;51.460;6.148;2023-02-11T14:01:01;41.75;;;22.30;;
38425;SDS011;24210;51.460;6.148;2023-02-11T14:03:27;35.93;;;20.53;;
38425;SDS011;24210;51.460;6.148;2023-02-11T14:16:27;36.30;;;16.40;;
38425;SDS011;24210;51.460;6.148;2023-02-11T14:21:18;33.23;;;16.37;;
38425;SDS011;24210;51.460;6.148;2023-02-11T14:28:34;40.33;;;18.43;;
38425;SDS011;24210;51.460;6.148;2023-02-11T14:31:06;39.57;;;18.03;;
38425;SDS011;24210;51.460;6.148;2023-02-11T14:43:38;24.52;;;13.38;;
38425;SDS011;24210;51.460;6.148;2023-02-11T14:46:04;25.38;;;10.70;;
38425;SDS011;24210;51.460;6.148;2023-02-11T14:48:33;52.23;;;23.57;;
38425;SDS011;24210;51.460;6.148;2023-02-11T14:51:03;51.08;;;24.92;;
38425;SDS011;24210;51.460;6.148;2023-02-11T14:53:31;46.00;;;22.65;;
38425;SDS011;24210;51.460;6.148;2023-02-11T14:55:57;46.97;;;25.45;;
38425;SDS011;24210;51.460;6.148;2023-02-11T14:58:23;24.47;;;12.43;;
38425;SDS011;24210;51.460;6.148;2023-02-11T15:00:53;36.50;;;20.05;;
38425;SDS011;24210;51.460;6.148;2023-02-11T15:03:32;40.97;;;20.63;;
38425;SDS011;24210;51.460;6.148;2023-02-11T15:08:29;60.10;;;30.00;;
38425;SDS011;24210;51.460;6.148;2023-02-11T15:10:55;52.78;;;29.10;;
38425;SDS011;24210;51.460;6.148;2023-02-11T15:13:22;50.40;;;27.73;;
38425;SDS011;24210;51.460;6.148;2023-02-11T15:15:52;53.25;;;30.88;;
38425;SDS011;24210;51.460;6.148;2023-02-11T15:18:19;49.13;;;26.63;;
38425;SDS011;24210;51.460;6.148;2023-02-11T15:20:46;51.95;;;28.48;;
38425;SDS011;24210;51.460;6.148;2023-02-11T15:23:15;51.63;;;28.80;;
38425;SDS011;24210;51.460;6.148;2023-02-11T15:25:44;50.33;;;27.50;;
38425;SDS011;24210;51.460;6.148;2023-02-11T15:28:21;53.42;;;28.27;;
38425;SDS011;24210;51.460;6.148;2023-02-11T15:30:46;44.42;;;27.00;;
38425;SDS011;24210;51.460;6.148;2023-02-11T15:33:20;49.78;;;28.95;;
38425;SDS011;24210;51.460;6.148;2023-02-11T15:35:46;47.38;;;26.95;;
38425;SDS011;24210;51.460;6.148;2023-02-11T15:38:11;42.20;;;24.93;;
38425;SDS011;24210;51.460;6.148;2023-02-11T15:40:37;49.20;;;27.95;;
38425;SDS011;24210;51.460;6.148;2023-02-11T15:43:03;58.43;;;30.73;;
38425;SDS011;24210;51.460;6.148;2023-02-11T15:45:30;59.35;;;29.60;;
38425;SDS011;24210;51.460;6.148;2023-02-11T15:48:16;57.05;;;32.08;;
38425;SDS011;24210;51.460;6.148;2023-02-11T15:50:47;55.55;;;33.28;;
38425;SDS011;24210;51.460;6.148;2023-02-11T15:53:18;54.00;;;29.60;;
38425;SDS011;24210;51.460;6.148;2023-02-11T15:55:44;59.38;;;31.33;;
38425;SDS011;24210;51.460;6.148;2023-02-11T15:58:10;57.33;;;30.93;;
38425;SDS011;24210;51.460;6.148;2023-02-11T16:00:36;50.03;;;31.60;;
38425;SDS011;24210;51.460;6.148;2023-02-11T16:05:32;55.70;;;31.95;;
38425;SDS011;24210;51.460;6.148;2023-02-11T16:07:57;59.28;;;34.47;;
38425;SDS011;24210;51.460;6.148;2023-02-11T16:12:52;57.57;;;30.27;;
38425;SDS011;24210;51.460;6.148;2023-02-11T16:15:29;54.83;;;30.58;;
38425;SDS011;24210;51.460;6.148;2023-02-11T16:17:54;53.33;;;32.67;;
38425;SDS011;24210;51.460;6.148;2023-02-11T16:20:20;92.00;;;46.73;;
38425;SDS011;24210;51.460;6.148;2023-02-11T16:22:45;74.43;;;44.70;;
38425;SDS011;24210;51.460;6.148;2023-02-11T16:25:17;63.77;;;35.93;;
38425;SDS011;24210;51.460;6.148;2023-02-11T16:27:46;55.22;;;33.28;;
38425;SDS011;24210;51.460;6.148;2023-02-11T16:32:46;48.63;;;28.65;;
38425;SDS011;24210;51.460;6.148;2023-02-11T16:35:11;55.83;;;32.80;;
38425;SDS011;24210;51.460;6.148;2023-02-11T16:37:37;60.05;;;31.55;;
38425;SDS011;24210;51.460;6.148;2023-02-11T16:40:02;54.37;;;32.47;;
38425;SDS011;24210;51.460;6.148;2023-02-11T16:42:28;61.33;;;36.80;;
38425;SDS011;24210;51.460;6.148;2023-02-11T16:44:53;54.60;;;31.23;;
38425;SDS011;24210;51.460;6.148;2023-02-11T16:47:21;63.20;;;35.33;;
38425;SDS011;24210;51.460;6.148;2023-02-11T16:49:47;56.03;;;32.50;;
38425;SDS011;24210;51.460;6.148;2023-02-11T16:52:12;85.83;;;48.93;;
38425;SDS011;24210;51.460;6.148;2023-02-11T16:54:38;73.75;;;47.97;;
38425;SDS011;24210;51.460;6.148;2023-02-11T16:59:37;56.08;;;34.28;;
38425;SDS011;24210;51.460;6.148;2023-02-11T17:02:03;65.20;;;37.60;;
38425;SDS011;24210;51.460;6.148;2023-02-11T17:04:29;67.13;;;37.30;;
38425;SDS011;24210;51.460;6.148;2023-02-11T17:09:21;65.57;;;36.60;;
38425;SDS011;24210;51.460;6.148;2023-02-11T17:11:46;58.25;;;35.53;;
38425;SDS011;24210;51.460;6.148;2023-02-11T17:14:11;65.47;;;36.03;;
38425;SDS011;24210;51.460;6.148;2023-02-11T17:16:37;60.87;;;38.77;;
38425;SDS011;24210;51.460;6.148;2023-02-11T17:19:02;62.07;;;38.57;;
38425;SDS011;24210;51.460;6.148;2023-02-11T17:21:27;62.50;;;36.27;;
38425;SDS011;24210;51.460;6.148;2023-02-11T17:23:55;63.03;;;36.95;;